Time;durP1;ratioP1;P1;durP2;ratioP2;P2;SDS_P1;SDS_P2;PMS_P1;PMS_P2;Temp;Humidity;BMP_temperature;BMP_pressure;BME280_temperature;BME280_humidity;BME280_pressure;Samples;Min_cycle;Max_cycle;Signal;HPM_P1;HPM_P2
2023/01/16 00:01:30;;;;;;;2.85;0.90;;;18.10;65.10;;;;;;4517287;31;20663;-66
2023/01/16 00:03:56;;;;;;;3.03;0.98;;;18.10;65.20;;;;;;4513927;31;20128;-67
2023/01/16 00:06:22;;;;;;;1.95;0.90;;;18.10;65.20;;;;;;4528810;31;20143;-66
2023/01/16 00:08:48;;;;;;;3.28;0.90;;;18.10;65.20;;;;;;4528498;31;20144;-66
2023/01/16 00:11:15;;;;;;;1.70;0.75;;;18.00;65.10;;;;;;4527880;31;20170;-66
2023/01/16 00:13:40;;;;;;;4.13;0.88;;;18.00;65.10;;;;;;4516184;31;20220;-66
2023/01/16 00:16:07;;;;;;;2.78;1.05;;;18.00;65.20;;;;;;4528807;31;20120;-67
2023/01/16 00:18:34;;;;;;;3.33;0.95;;;18.00;65.20;;;;;;4528756;31;20140;-67
2023/01/16 00:21:02;;;;;;;3.83;1.20;;;18.00;65.20;;;;;;4526952;31;20167;-67
2023/01/16 00:23:30;;;;;;;3.25;0.90;;;18.00;65.20;;;;;;4529090;31;20213;-67
2023/01/16 00:25:56;;;;;;;1.10;0.50;;;18.00;65.20;;;;;;4514126;31;20143;-67
2023/01/16 00:28:23;;;;;;;3.10;1.10;;;18.00;65.20;;;;;;4514873;31;20140;-67
2023/01/16 00:30:49;;;;;;;2.95;0.90;;;18.00;65.20;;;;;;4516361;31;20115;-67
2023/01/16 00:33:15;;;;;;;3.45;1.00;;;17.90;65.20;;;;;;4528583;31;20112;-67
2023/01/16 00:35:40;;;;;;;3.00;0.90;;;17.90;65.10;;;;;;4516531;31;20484;-66
2023/01/16 00:38:06;;;;;;;2.72;0.95;;;17.90;65.10;;;;;;4529279;31;20131;-67
2023/01/16 00:40:32;;;;;;;2.05;1.08;;;17.90;65.10;;;;;;4529791;31;20146;-67
2023/01/16 00:42:59;;;;;;;2.60;0.90;;;17.90;65.10;;;;;;4528137;31;20171;-66
2023/01/16 00:45:24;;;;;;;2.30;0.82;;;17.90;65.20;;;;;;4530100;31;20124;-66
2023/01/16 00:47:50;;;;;;;1.90;0.60;;;17.90;65.20;;;;;;4529450;31;20803;-67
2023/01/16 00:50:16;;;;;;;3.10;0.95;;;17.90;65.20;;;;;;4513304;31;20152;-66
2023/01/16 00:52:42;;;;;;;3.13;0.93;;;17.80;65.20;;;;;;4515951;31;20148;-67
2023/01/16 00:55:08;;;;;;;1.98;0.75;;;17.80;65.20;;;;;;4526550;31;20138;-67
2023/01/16 00:57:34;;;;;;;2.65;0.98;;;17.80;65.20;;;;;;4528575;31;20166;-66
2023/01/16 01:00:00;;;;;;;2.80;0.68;;;17.80;65.20;;;;;;4528538;31;20123;-67
2023/01/16 01:02:27;;;;;;;1.90;0.50;;;17.80;65.30;;;;;;4528880;31;20147;-67
2023/01/16 01:04:54;;;;;;;2.00;0.75;;;17.80;65.30;;;;;;4512399;31;20273;-66
2023/01/16 01:07:24;;;;;;;1.75;0.70;;;17.80;65.20;;;;;;4515223;31;20327;-66
2023/01/16 01:09:50;;;;;;;1.48;0.70;;;17.80;65.30;;;;;;4529438;31;20553;-67
2023/01/16 01:12:16;;;;;;;4.00;0.93;;;17.80;65.30;;;;;;4527777;31;20131;-67
2023/01/16 01:14:42;;;;;;;2.13;0.90;;;17.80;65.30;;;;;;4529299;31;20136;-66
2023/01/16 01:17:08;;;;;;;1.73;0.60;;;17.70;65.30;;;;;;4522206;31;20116;-66
2023/01/16 01:19:34;;;;;;;2.47;0.80;;;17.80;65.30;;;;;;4529610;31;20124;-67
2023/01/16 01:22:00;;;;;;;2.38;0.70;;;17.70;65.30;;;;;;4527995;31;20197;-66
2023/01/16 01:24:26;;;;;;;1.60;0.70;;;17.70;65.30;;;;;;4501673;31;20183;-67
2023/01/16 01:26:52;;;;;;;2.13;0.85;;;17.70;65.30;;;;;;4529748;31;20250;-66
2023/01/16 01:29:19;;;;;;;1.17;0.60;;;17.70;65.30;;;;;;4528534;31;20139;-66
2023/01/16 01:31:45;;;;;;;2.28;0.77;;;17.70;65.30;;;;;;4529595;31;20131;-67
2023/01/16 01:34:11;;;;;;;2.42;0.88;;;17.70;65.30;;;;;;4529232;31;20134;-66
2023/01/16 01:36:37;;;;;;;1.88;0.73;;;17.70;65.30;;;;;;4515338;31;20124;-67
2023/01/16 01:39:03;;;;;;;2.72;0.60;;;17.70;66.20;;;;;;4528520;31;20123;-67
2023/01/16 01:41:29;;;;;;;2.05;0.88;;;17.60;65.30;;;;;;4528047;31;20638;-66
2023/01/16 01:43:56;;;;;;;2.17;0.75;;;17.60;66.20;;;;;;4529417;31;20505;-66
2023/01/16 01:46:42;;;;;;;3.10;0.80;;;17.70;65.30;;;;;;4528988;31;20632;-66
2023/01/16 01:49:25;;;;;;;1.58;0.70;;;17.60;65.30;;;;;;4529196;31;20269;-67
2023/01/16 01:52:05;;;;;;;1.92;0.70;;;17.60;65.40;;;;;;4528056;31;20149;-66
2023/01/16 01:54:45;;;;;;;2.03;0.80;;;17.60;65.40;;;;;;4527949;31;20136;-67
2023/01/16 01:57:20;;;;;;;2.00;0.75;;;17.60;65.20;;;;;;4529033;31;20258;-67
2023/01/16 02:00:00;;;;;;;1.33;0.60;;;17.60;65.20;;;;;;4527515;31;20136;-66
2023/01/16 02:02:33;;;;;;;2.67;0.85;;;17.60;65.30;;;;;;4529017;31;20392;-66
2023/01/16 02:05:01;;;;;;;2.35;0.60;;;17.60;65.30;;;;;;4527783;31;20140;-66
2023/01/16 02:07:27;;;;;;;1.70;0.77;;;17.60;65.20;;;;;;4527828;31;20645;-67
2023/01/16 02:10:16;;;;;;;1.88;0.80;;;17.60;65.30;;;;;;4514504;31;20158;-66
2023/01/16 02:12:42;;;;;;;1.92;0.85;;;17.50;65.30;;;;;;4527564;31;20140;-66
2023/01/16 02:15:09;;;;;;;1.95;0.73;;;17.50;65.20;;;;;;4514584;31;20136;-67
2023/01/16 02:20:27;;;;;;;1.40;0.40;;;17.50;65.20;;;;;;4514943;31;20135;-66
2023/01/16 02:23:14;;;;;;;1.90;0.65;;;17.50;65.20;;;;;;4528605;31;20256;-66
2023/01/16 02:26:25;;;;;;;1.92;0.70;;;17.50;65.20;;;;;;4527441;31;20112;-67
2023/01/16 02:29:11;;;;;;;1.42;0.50;;;17.50;65.20;;;;;;4462446;32;20121;-67
2023/01/16 02:31:58;;;;;;;1.58;0.63;;;17.50;65.20;;;;;;4525398;31;20288;-67
2023/01/16 02:34:43;;;;;;;1.08;0.50;;;17.50;65.20;;;;;;4519763;31;20576;-67
2023/01/16 02:37:09;;;;;;;0.90;0.50;;;17.50;65.30;;;;;;4528260;31;20175;-67
2023/01/16 02:39:43;;;;;;;1.10;0.50;;;17.40;66.10;;;;;;4513515;31;20234;-66
2023/01/16 02:42:33;;;;;;;2.88;0.90;;;17.40;65.20;;;;;;4523548;31;20274;-66
2023/01/16 02:45:14;;;;;;;1.23;0.40;;;17.40;65.30;;;;;;4529698;31;20131;-67
2023/01/16 02:47:57;;;;;;;2.03;0.70;;;17.40;65.20;;;;;;4522084;31;20184;-66
2023/01/16 02:50:39;;;;;;;1.80;0.70;;;17.40;65.30;;;;;;4528389;31;20131;-67
2023/01/16 02:53:22;;;;;;;1.48;0.57;;;17.40;65.30;;;;;;4515506;31;20132;-67
2023/01/16 02:55:57;;;;;;;1.83;0.60;;;17.40;66.20;;;;;;4528488;31;20146;-67
2023/01/16 02:58:27;;;;;;;1.38;0.70;;;17.30;65.30;;;;;;4529249;31;20484;-67
2023/01/16 03:00:56;;;;;;;1.23;0.60;;;17.30;65.30;;;;;;4529198;31;20111;-66
2023/01/16 03:04:24;;;;;;;1.00;0.40;;;17.30;65.30;;;;;;4528009;31;20131;-67
2023/01/16 03:07:34;;;;;;;1.48;0.50;;;17.40;65.40;;;;;;4463850;32;20649;-67
2023/01/16 03:10:24;;;;;;;1.90;0.60;;;17.30;65.30;;;;;;4440468;32;20126;-66
2023/01/16 03:13:23;;;;;;;1.33;0.60;;;17.30;65.30;;;;;;4521713;31;20135;-66
2023/01/16 03:16:00;;;;;;;1.35;0.55;;;17.30;65.30;;;;;;4518887;31;20319;-66
2023/01/16 03:18:48;;;;;;;1.38;0.60;;;17.30;65.30;;;;;;4515984;31;20170;-66
2023/01/16 03:21:28;;;;;;;1.33;0.45;;;17.30;65.30;;;;;;4528306;31;20115;-66
2023/01/16 03:23:57;;;;;;;1.55;0.57;;;17.30;65.20;;;;;;4532472;31;20132;-67
2023/01/16 03:26:32;;;;;;;2.63;0.50;;;17.30;65.20;;;;;;4532534;31;20174;-66
2023/01/16 03:28:57;;;;;;;1.90;0.60;;;17.30;65.10;;;;;;4517047;31;20124;-67
2023/01/16 03:31:42;;;;;;;1.85;0.63;;;17.30;65.10;;;;;;4532939;31;20123;-66
2023/01/16 03:34:21;;;;;;;1.17;0.50;;;17.40;65.00;;;;;;4531110;31;20692;-66
2023/01/16 03:37:03;;;;;;;1.13;0.50;;;17.40;64.90;;;;;;4532574;31;20128;-66
2023/01/16 03:39:35;;;;;;;1.45;0.65;;;17.40;64.80;;;;;;4532676;31;20189;-66
2023/01/16 03:42:08;;;;;;;1.88;0.55;;;17.50;64.80;;;;;;4531250;31;20200;-66
2023/01/16 03:44:40;;;;;;;1.05;0.50;;;17.50;64.70;;;;;;4518423;31;20152;-66
2023/01/16 03:47:15;;;;;;;0.70;0.40;;;17.50;64.70;;;;;;4531031;31;20147;-67
2023/01/16 03:49:47;;;;;;;1.60;0.50;;;17.50;64.60;;;;;;4532335;31;20142;-66
2023/01/16 03:52:17;;;;;;;0.98;0.40;;;17.50;64.50;;;;;;4532607;31;20091;-66
2023/01/16 03:55:05;;;;;;;1.05;0.43;;;17.50;64.50;;;;;;4530849;31;20128;-66
2023/01/16 03:57:40;;;;;;;1.80;0.50;;;17.50;64.40;;;;;;4517999;31;20143;-66
2023/01/16 04:00:07;;;;;;;1.00;0.30;;;17.50;64.30;;;;;;4516889;31;20144;-66
2023/01/16 04:02:47;;;;;;;1.70;0.60;;;17.50;64.30;;;;;;4517711;31;20211;-66
2023/01/16 04:05:15;;;;;;;0.73;0.40;;;17.60;64.30;;;;;;4521831;31;20225;-67
2023/01/16 04:07:51;;;;;;;1.27;0.40;;;17.60;64.20;;;;;;4530890;31;20124;-67
2023/01/16 04:10:31;;;;;;;1.00;0.57;;;17.60;64.20;;;;;;4522032;31;20142;-67
2023/01/16 04:13:08;;;;;;;1.00;0.40;;;17.60;64.10;;;;;;4531087;31;20265;-66
2023/01/16 04:15:37;;;;;;;0.93;0.32;;;17.60;64.10;;;;;;4531649;31;20189;-66
2023/01/16 04:18:03;;;;;;;1.23;0.50;;;17.60;64.10;;;;;;4517581;31;20276;-66
2023/01/16 04:20:41;;;;;;;1.02;0.50;;;17.60;64.10;;;;;;4530605;31;20140;-67
2023/01/16 04:23:07;;;;;;;1.33;0.40;;;17.60;64.10;;;;;;4531816;31;20139;-66
2023/01/16 04:25:33;;;;;;;1.00;0.40;;;17.60;64.10;;;;;;4530462;31;20132;-67
2023/01/16 04:27:59;;;;;;;1.33;0.63;;;17.60;64.10;;;;;;4517651;31;20160;-67
2023/01/16 04:30:26;;;;;;;1.05;0.50;;;17.60;64.00;;;;;;4516638;31;20120;-67
2023/01/16 04:32:52;;;;;;;0.85;0.50;;;17.60;64.00;;;;;;4530773;31;20135;-67
2023/01/16 04:35:19;;;;;;;1.25;0.50;;;17.60;64.10;;;;;;4531492;31;20091;-67
2023/01/16 04:37:45;;;;;;;0.50;0.35;;;17.60;64.10;;;;;;4516172;31;20188;-66
2023/01/16 04:40:11;;;;;;;0.50;0.20;;;17.60;64.00;;;;;;4517420;31;20276;-67
2023/01/16 04:42:37;;;;;;;0.57;0.30;;;17.60;64.00;;;;;;4529964;31;20220;-67
2023/01/16 04:45:04;;;;;;;1.33;0.60;;;17.70;64.10;;;;;;4516147;31;20454;-67
2023/01/16 04:47:30;;;;;;;1.23;0.38;;;17.60;64.10;;;;;;4514733;31;20244;-66
2023/01/16 04:49:55;;;;;;;1.02;0.35;;;17.60;64.00;;;;;;4515317;31;20154;-67
2023/01/16 04:52:21;;;;;;;1.02;0.43;;;17.60;64.00;;;;;;4515801;31;20096;-67
2023/01/16 04:54:47;;;;;;;1.52;0.30;;;17.60;64.10;;;;;;4515732;31;20185;-67
2023/01/16 04:57:13;;;;;;;1.95;0.47;;;17.60;64.00;;;;;;4517221;31;20123;-67
2023/01/16 04:59:39;;;;;;;1.23;0.50;;;17.60;64.00;;;;;;4515494;31;20175;-67
2023/01/16 05:02:05;;;;;;;0.75;0.30;;;17.60;64.00;;;;;;4517236;31;20148;-66
2023/01/16 05:04:31;;;;;;;0.30;0.20;;;17.60;63.90;;;;;;4515279;31;20130;-66
2023/01/16 05:06:57;;;;;;;1.02;0.50;;;17.60;64.00;;;;;;4531086;31;20702;-67
2023/01/16 05:09:24;;;;;;;1.13;0.60;;;17.60;64.00;;;;;;4506102;31;20092;-66
2023/01/16 05:11:49;;;;;;;0.77;0.30;;;17.60;64.00;;;;;;4529660;31;20140;-67
2023/01/16 05:14:19;;;;;;;1.08;0.40;;;17.60;64.00;;;;;;4517618;31;20175;-66
2023/01/16 05:16:45;;;;;;;0.40;0.22;;;17.60;64.00;;;;;;4514662;31;20262;-67
2023/01/16 05:19:11;;;;;;;1.65;0.50;;;17.60;63.90;;;;;;4531340;31;20188;-67
2023/01/16 05:21:37;;;;;;;0.98;0.40;;;17.60;63.90;;;;;;4529818;31;20131;-66
2023/01/16 05:24:04;;;;;;;0.73;0.30;;;17.60;63.90;;;;;;4503092;31;20181;-66
2023/01/16 05:26:30;;;;;;;1.05;0.57;;;17.60;63.90;;;;;;4530585;31;20131;-66
2023/01/16 05:28:57;;;;;;;1.90;0.40;;;17.60;63.90;;;;;;4529865;31;20105;-66
2023/01/16 05:31:23;;;;;;;0.85;0.30;;;17.60;63.90;;;;;;4516709;31;20239;-67
2023/01/16 05:33:49;;;;;;;1.10;0.40;;;17.60;63.80;;;;;;4529238;31;20266;-67
2023/01/16 05:36:35;;;;;;;0.98;0.38;;;17.60;63.90;;;;;;4518820;31;20146;-67
2023/01/16 05:39:22;;;;;;;0.65;0.22;;;17.60;63.90;;;;;;4509149;31;20115;-66
2023/01/16 05:41:47;;;;;;;0.73;0.40;;;17.60;63.90;;;;;;4513156;31;20134;-67
2023/01/16 05:44:13;;;;;;;0.65;0.38;;;17.60;63.80;;;;;;4513943;31;20131;-66
2023/01/16 05:46:39;;;;;;;1.38;0.50;;;17.60;63.80;;;;;;4527330;31;20121;-67
2023/01/16 05:49:05;;;;;;;1.08;0.40;;;17.60;63.90;;;;;;4528866;31;20683;-66
2023/01/16 05:51:31;;;;;;;0.60;0.20;;;17.60;63.80;;;;;;4527425;31;20254;-66
2023/01/16 05:53:57;;;;;;;1.13;0.40;;;17.60;63.80;;;;;;4529325;31;20262;-67
2023/01/16 05:56:25;;;;;;;1.30;0.50;;;17.60;63.80;;;;;;4528506;31;20133;-67
2023/01/16 05:58:51;;;;;;;0.70;0.40;;;17.60;63.80;;;;;;4527637;31;20252;-67
2023/01/16 06:01:17;;;;;;;1.33;0.40;;;17.60;63.80;;;;;;4529026;31;20189;-67
2023/01/16 06:03:43;;;;;;;1.13;0.40;;;17.60;63.80;;;;;;4527123;31;20139;-66
2023/01/16 06:06:09;;;;;;;1.08;0.35;;;17.60;63.70;;;;;;4524005;31;20139;-67
2023/01/16 06:08:35;;;;;;;1.30;0.40;;;17.60;63.70;;;;;;4527476;31;20703;-67
2023/01/16 06:11:01;;;;;;;0.85;0.40;;;17.60;63.80;;;;;;4527593;31;20116;-66
2023/01/16 06:13:27;;;;;;;1.33;0.60;;;17.60;63.70;;;;;;4514406;31;20123;-66
2023/01/16 06:15:52;;;;;;;0.70;0.30;;;17.60;63.80;;;;;;4514496;31;20138;-66
2023/01/16 06:18:19;;;;;;;0.60;0.28;;;17.60;63.80;;;;;;4518698;31;20128;-66
2023/01/16 06:20:46;;;;;;;0.88;0.40;;;17.60;63.80;;;;;;4508187;31;20124;-67
2023/01/16 06:23:13;;;;;;;0.65;0.30;;;17.60;63.80;;;;;;4520021;31;20190;-66
2023/01/16 06:25:39;;;;;;;0.85;0.40;;;17.50;63.70;;;;;;4507504;31;20263;-67
2023/01/16 06:28:05;;;;;;;0.50;0.28;;;17.50;63.80;;;;;;4518694;31;20135;-66
2023/01/16 06:30:31;;;;;;;1.08;0.40;;;17.60;63.80;;;;;;4516481;31;20179;-67
2023/01/16 06:32:57;;;;;;;0.45;0.20;;;17.60;63.80;;;;;;4510687;31;20171;-67
2023/01/16 06:35:23;;;;;;;1.13;0.20;;;17.50;63.80;;;;;;4515283;31;20135;-66
2023/01/16 06:37:49;;;;;;;0.32;0.30;;;17.50;63.80;;;;;;4520502;31;20257;-66
2023/01/16 06:40:16;;;;;;;0.77;0.20;;;17.50;63.80;;;;;;4519338;31;20269;-67
2023/01/16 06:42:42;;;;;;;0.57;0.30;;;17.50;63.80;;;;;;4515164;31;20140;-67
2023/01/16 06:45:08;;;;;;;0.90;0.38;;;17.50;63.80;;;;;;4519004;31;20147;-67
2023/01/16 06:47:34;;;;;;;1.00;0.40;;;17.50;63.80;;;;;;4524303;31;20249;-67
2023/01/16 06:50:00;;;;;;;1.02;0.38;;;17.50;63.80;;;;;;4516139;31;20150;-67
2023/01/16 06:52:30;;;;;;;0.40;0.25;;;17.50;63.80;;;;;;4521428;31;20194;-66
2023/01/16 06:54:56;;;;;;;0.88;0.30;;;17.50;63.80;;;;;;4520149;31;20120;-66
2023/01/16 06:57:22;;;;;;;1.00;0.45;;;17.50;63.80;;;;;;4529729;31;20124;-66
2023/01/16 06:59:50;;;;;;;0.52;0.28;;;17.50;63.80;;;;;;4513921;31;20139;-66
2023/01/16 07:02:16;;;;;;;0.60;0.30;;;17.50;63.80;;;;;;4529663;31;20200;-67
2023/01/16 07:04:42;;;;;;;0.55;0.30;;;17.50;63.80;;;;;;4514455;31;20139;-66
2023/01/16 07:07:10;;;;;;;0.40;0.20;;;17.50;63.80;;;;;;4528913;31;20135;-67
2023/01/16 07:09:36;;;;;;;0.80;0.32;;;17.50;63.80;;;;;;4515211;31;20127;-67
2023/01/16 07:12:02;;;;;;;1.05;0.35;;;17.50;63.80;;;;;;4528324;31;20155;-66
2023/01/16 07:22:43;;;;;;;1.70;0.47;;;17.40;63.80;;;;;;4517365;31;20180;-65
2023/01/16 07:25:15;;;;;;;0.55;0.30;;;17.40;63.80;;;;;;4527827;31;20146;-66
2023/01/16 07:27:42;;;;;;;0.63;0.30;;;17.40;63.80;;;;;;4529708;31;20134;-66
2023/01/16 07:30:09;;;;;;;0.30;0.20;;;17.40;63.80;;;;;;4528517;31;20135;-66
2023/01/16 07:32:35;;;;;;;0.63;0.20;;;17.40;63.80;;;;;;4529191;31;20127;-67
2023/01/16 07:35:01;;;;;;;0.95;0.35;;;17.40;63.80;;;;;;4529091;31;20095;-66
2023/01/16 07:37:27;;;;;;;0.57;0.40;;;17.40;63.80;;;;;;4513773;31;20132;-66
2023/01/16 07:39:54;;;;;;;0.98;0.28;;;17.40;63.80;;;;;;4515210;31;20182;-66
2023/01/16 07:42:19;;;;;;;0.70;0.50;;;17.40;63.80;;;;;;4527787;31;20132;-67
2023/01/16 07:44:45;;;;;;;0.70;0.35;;;17.40;63.80;;;;;;4515173;31;20293;-67
2023/01/16 07:47:12;;;;;;;0.80;0.40;;;17.40;63.80;;;;;;4513656;31;20120;-66
2023/01/16 07:49:38;;;;;;;0.88;0.38;;;17.40;63.80;;;;;;4528767;31;20134;-66
2023/01/16 07:52:04;;;;;;;1.23;0.30;;;17.40;63.80;;;;;;4529040;31;20076;-66
2023/01/16 07:54:30;;;;;;;0.50;0.20;;;17.40;63.70;;;;;;4528095;31;20297;-67
2023/01/16 07:56:55;;;;;;;1.05;0.30;;;17.40;63.80;;;;;;4515169;31;20119;-66
2023/01/16 07:59:21;;;;;;;0.40;0.30;;;17.30;63.80;;;;;;4527770;31;20161;-66
2023/01/16 08:01:47;;;;;;;3.50;0.40;;;17.30;64.00;;;;;;4508980;31;20112;-65
2023/01/16 08:04:13;;;;;;;0.70;0.30;;;17.30;64.20;;;;;;4518476;31;20112;-66
2023/01/16 08:06:44;;;;;;;1.23;0.50;;;17.30;64.60;;;;;;4514167;31;20250;-68
2023/01/16 08:09:10;;;;;;;1.33;0.38;;;17.30;64.90;;;;;;4520591;31;20128;-66
2023/01/16 08:11:37;;;;;;;0.70;0.30;;;17.40;65.20;;;;;;4516531;31;20120;-66
2023/01/16 08:14:04;;;;;;;1.33;0.40;;;17.50;65.20;;;;;;4524311;31;20575;-65
2023/01/16 08:16:29;;;;;;;0.90;0.30;;;17.60;65.00;;;;;;4511534;31;20128;-66
2023/01/16 08:18:56;;;;;;;4.22;0.30;;;17.70;64.70;;;;;;4516799;31;20156;-65
2023/01/16 08:21:21;;;;;;;0.85;0.30;;;17.80;64.40;;;;;;4505169;31;20578;-66
2023/01/16 08:23:47;;;;;;;0.45;0.20;;;18.00;64.20;;;;;;4506788;31;20108;-65
2023/01/16 08:26:14;;;;;;;0.95;0.20;;;18.10;63.90;;;;;;4521710;31;20136;-66
2023/01/16 08:28:40;;;;;;;0.60;0.20;;;18.20;63.60;;;;;;4516295;31;20123;-67
2023/01/16 08:31:08;;;;;;;0.98;0.30;;;18.30;63.30;;;;;;4523793;31;20120;-66
2023/01/16 08:33:35;;;;;;;0.57;0.30;;;18.50;63.00;;;;;;4515216;31;20132;-66
2023/01/16 08:36:04;;;;;;;0.80;0.28;;;18.60;63.50;;;;;;4509241;31;20182;-66
2023/01/16 08:38:30;;;;;;;1.77;0.30;;;18.80;62.40;;;;;;4518586;31;20151;-67
2023/01/16 08:40:57;;;;;;;0.30;0.30;;;18.90;62.10;;;;;;4516115;31;20124;-66
2023/01/16 08:51:59;;;;;;;0.45;0.30;;;19.40;61.20;;;;;;4516162;31;20025;-65
2023/01/16 08:54:25;;;;;;;3.10;0.20;;;19.40;60.90;;;;;;4516580;31;20170;-65
2023/01/16 08:56:51;;;;;;;9.50;0.50;;;19.40;60.80;;;;;;4510694;31;20132;-65
2023/01/16 08:59:17;;;;;;;0.73;0.20;;;19.40;60.70;;;;;;4525454;31;20181;-65
2023/01/16 09:01:43;;;;;;;0.50;0.22;;;19.50;60.70;;;;;;4501313;31;20120;-66
2023/01/16 09:04:09;;;;;;;0.70;0.30;;;19.50;60.70;;;;;;4509873;31;20128;-65
2023/01/16 09:06:37;;;;;;;0.75;0.20;;;19.50;60.70;;;;;;4530388;31;20578;-66
2023/01/16 09:09:05;;;;;;;0.85;0.20;;;19.50;60.60;;;;;;4529615;31;20148;-66
2023/01/16 09:14:16;;;;;;;0.47;0.30;;;19.50;60.60;;;;;;4530908;31;20132;-66
2023/01/16 09:16:42;;;;;;;0.30;0.10;;;19.50;60.60;;;;;;4527428;31;20143;-66
2023/01/16 09:19:08;;;;;;;0.50;0.20;;;19.60;60.70;;;;;;4529394;31;20143;-66
2023/01/16 09:21:33;;;;;;;1.63;0.30;;;19.60;60.60;;;;;;4527048;31;20124;-66
2023/01/16 09:23:59;;;;;;;1.42;0.38;;;19.60;60.60;;;;;;4528829;31;20146;-67
2023/01/16 09:26:25;;;;;;;0.68;0.30;;;19.60;60.50;;;;;;4529851;31;20087;-66
2023/01/16 09:28:51;;;;;;;1.73;0.28;;;19.60;60.50;;;;;;4528298;31;20477;-66
2023/01/16 09:31:18;;;;;;;0.98;0.30;;;19.60;60.60;;;;;;4529775;31;20123;-67
2023/01/16 09:33:46;;;;;;;0.68;0.20;;;19.70;60.60;;;;;;4514888;31;20265;-67
2023/01/16 09:36:13;;;;;;;0.65;0.20;;;19.70;60.60;;;;;;4530737;31;20127;-67
2023/01/16 09:38:38;;;;;;;0.82;0.40;;;19.70;60.60;;;;;;4529418;31;20636;-66
2023/01/16 09:41:11;;;;;;;0.88;0.30;;;19.70;60.50;;;;;;4530463;31;20143;-66
2023/01/16 09:43:46;;;;;;;0.57;0.40;;;19.70;60.50;;;;;;4530605;31;20072;-66
2023/01/16 09:46:18;;;;;;;2.10;0.40;;;19.70;60.40;;;;;;4529161;31;20615;-68
2023/01/16 09:48:50;;;;;;;1.27;0.30;;;19.70;60.20;;;;;;4516350;31;20131;-67
2023/01/16 09:51:42;;;;;;;1.15;0.40;;;19.60;60.10;;;;;;4529206;31;20175;-68
2023/01/16 10:00:02;;;;;;;0.65;0.30;;;19.70;60.40;;;;;;4524977;31;20136;-67
2023/01/16 10:02:33;;;;;;;1.50;0.30;;;19.70;60.40;;;;;;4528199;31;20154;-68
2023/01/16 10:05:02;;;;;;;1.30;0.40;;;19.70;60.50;;;;;;4527270;31;20189;-69
2023/01/16 10:07:48;;;;;;;3.70;0.45;;;19.70;60.60;;;;;;4514392;31;20127;-70
2023/01/16 10:10:34;;;;;;;2.75;0.50;;;19.70;60.80;;;;;;4529158;31;20151;-69
2023/01/16 10:13:17;;;;;;;1.23;0.47;;;19.60;60.80;;;;;;4513265;31;20139;-66
2023/01/16 10:15:51;;;;;;;3.85;0.30;;;19.60;61.00;;;;;;4510989;31;20180;-69
2023/01/16 10:18:40;;;;;;;3.83;0.93;;;19.60;61.00;;;;;;4521211;31;20514;-66
2023/01/16 10:21:08;;;;;;;0.65;0.30;;;19.60;61.10;;;;;;4525968;31;20112;-67
2023/01/16 10:24:01;;;;;;;3.03;0.40;;;19.60;61.10;;;;;;4526975;31;20140;-67
2023/01/16 10:26:29;;;;;;;4.90;0.50;;;19.60;61.10;;;;;;4528632;31;20092;-65
2023/01/16 10:29:30;;;;;;;1.65;0.50;;;19.70;61.20;;;;;;4514172;31;20120;-65
2023/01/16 10:32:04;;;;;;;1.58;0.40;;;19.70;61.20;;;;;;4516150;31;20132;-66
2023/01/16 10:34:51;;;;;;;2.38;0.52;;;19.70;61.20;;;;;;4526664;31;20139;-66
2023/01/16 10:37:19;;;;;;;1.08;0.30;;;19.70;61.20;;;;;;4524526;31;20138;-65
2023/01/16 10:39:45;;;;;;;1.67;0.40;;;19.70;61.20;;;;;;4515367;31;20154;-65
2023/01/16 10:50:37;;;;;;;0.95;0.30;;;19.70;61.40;;;;;;4499078;31;26231;-66
2023/01/16 10:53:09;;;;;;;0.73;0.40;;;19.70;61.50;;;;;;4527410;31;20151;-66
2023/01/16 10:55:37;;;;;;;1.38;0.30;;;19.70;61.50;;;;;;4526430;31;20123;-67
2023/01/16 10:58:11;;;;;;;1.10;0.30;;;19.70;61.60;;;;;;4520113;31;20746;-66
2023/01/16 11:00:41;;;;;;;2.60;0.50;;;19.70;61.60;;;;;;4522835;31;20084;-66
2023/01/16 11:03:31;;;;;;;1.02;0.40;;;19.70;61.60;;;;;;4518539;31;20589;-66
2023/01/16 11:06:19;;;;;;;1.38;0.40;;;19.70;61.60;;;;;;4522415;31;20265;-66
2023/01/16 11:09:06;;;;;;;1.25;0.40;;;19.60;61.60;;;;;;4514045;31;20615;-66
2023/01/16 11:20:32;;;;;;;0.88;0.20;;;19.30;62.30;;;;;;4523471;31;20504;-67
2023/01/16 11:23:13;;;;;;;0.65;0.30;;;19.30;62.50;;;;;;4527326;31;20136;-67
2023/01/16 11:25:39;;;;;;;1.50;0.28;;;19.20;62.60;;;;;;4526174;31;20628;-67
2023/01/16 11:28:09;;;;;;;2.38;0.35;;;19.20;62.60;;;;;;4527647;31;20524;-67
2023/01/16 11:30:42;;;;;;;0.80;0.35;;;19.30;62.70;;;;;;4527767;31;20522;-66
2023/01/16 11:33:17;;;;;;;1.90;0.40;;;19.30;62.50;;;;;;4527199;31;20147;-66
2023/01/16 11:35:53;;;;;;;0.65;0.30;;;19.40;62.30;;;;;;4525075;31;20124;-67
2023/01/16 11:38:20;;;;;;;0.95;0.30;;;19.50;62.10;;;;;;4525348;31;20156;-66
2023/01/16 11:40:50;;;;;;;1.02;0.30;;;19.60;61.90;;;;;;4522815;31;20112;-67
2023/01/16 11:46:28;;;;;;;1.15;0.40;;;19.70;61.60;;;;;;4529630;31;20144;-66
2023/01/16 11:48:58;;;;;;;1.35;0.38;;;19.70;61.40;;;;;;4530465;31;20157;-67
2023/01/16 11:51:36;;;;;;;0.95;0.30;;;19.80;61.40;;;;;;4529301;31;20167;-66
2023/01/16 11:54:09;;;;;;;1.15;0.38;;;19.80;61.30;;;;;;4528936;31;20144;-67
2023/01/16 11:56:48;;;;;;;0.52;0.20;;;19.90;61.20;;;;;;4530312;31;20496;-66
2023/01/16 11:59:32;;;;;;;1.95;0.30;;;19.90;61.20;;;;;;4529888;31;20705;-66
2023/01/16 12:02:18;;;;;;;1.85;0.30;;;19.90;61.30;;;;;;4531796;31;20135;-67
2023/01/16 12:07:55;;;;;;;1.05;0.32;;;19.90;61.20;;;;;;4520462;31;20190;-67
2023/01/16 12:10:32;;;;;;;1.13;0.40;;;19.90;61.10;;;;;;4516753;31;20179;-66
2023/01/16 12:16:30;;;;;;;0.85;0.30;;;19.90;61.20;;;;;;4527625;31;20294;-66
2023/01/16 12:19:27;;;;;;;0.70;0.35;;;19.90;61.20;;;;;;4529388;31;20254;-66
2023/01/16 12:22:14;;;;;;;1.02;0.30;;;19.90;61.30;;;;;;4530248;31;20160;-65
2023/01/16 12:24:45;;;;;;;1.15;0.55;;;19.90;61.20;;;;;;4528865;31;20212;-67
2023/01/16 12:27:32;;;;;;;1.40;0.38;;;19.90;61.30;;;;;;4505008;31;20132;-65
2023/01/16 12:30:23;;;;;;;1.70;0.40;;;20.00;61.40;;;;;;4515058;31;20585;-66
2023/01/16 12:32:52;;;;;;;2.13;0.50;;;20.00;61.40;;;;;;4530369;31;20190;-66
2023/01/16 12:35:23;;;;;;;2.78;0.75;;;20.00;61.40;;;;;;4514863;31;20707;-65
2023/01/16 12:37:57;;;;;;;1.05;0.30;;;20.00;61.40;;;;;;4515432;31;20254;-66
2023/01/16 12:43:17;;;;;;;1.65;0.43;;;20.00;61.50;;;;;;4515626;31;20164;-66
2023/01/16 12:43:48;;;;;;;2.60;0.22;;;20.00;61.50;;;;;;4528906;31;20274;-67
2023/01/16 12:46:33;;;;;;;0.75;0.30;;;20.00;61.50;;;;;;4528572;31;20286;-68
2023/01/16 12:49:19;;;;;;;0.70;0.40;;;19.90;61.50;;;;;;4515946;31;20163;-68
2023/01/16 12:52:04;;;;;;;1.73;0.40;;;19.90;61.40;;;;;;4528313;31;20127;-66
2023/01/16 12:54:36;;;;;;;3.22;0.70;;;20.00;61.60;;;;;;4526971;31;20132;-67
2023/01/16 12:57:29;;;;;;;0.90;0.40;;;20.00;61.60;;;;;;4529004;31;20213;-66
2023/01/16 13:00:09;;;;;;;2.35;0.88;;;20.00;61.50;;;;;;4529261;31;20135;-67
2023/01/16 13:02:44;;;;;;;0.65;0.30;;;20.00;61.50;;;;;;4528508;31;20132;-67
2023/01/16 13:05:18;;;;;;;1.55;0.50;;;20.00;61.50;;;;;;4524723;31;20120;-66
2023/01/16 13:08:08;;;;;;;2.05;0.50;;;20.00;61.50;;;;;;4514631;31;20142;-67
2023/01/16 13:13:37;;;;;;;4.07;0.60;;;20.00;61.40;;;;;;4528513;31;20103;-67
2023/01/16 13:16:13;;;;;;;2.25;0.35;;;19.90;61.40;;;;;;4528432;31;20119;-67
2023/01/16 13:18:50;;;;;;;1.50;0.70;;;20.00;61.60;;;;;;4529632;31;20158;-67
2023/01/16 13:21:26;;;;;;;1.73;0.57;;;19.90;61.60;;;;;;4514536;31;20160;-68
2023/01/16 13:24:29;;;;;;;2.05;0.30;;;20.00;61.60;;;;;;4514805;31;20509;-68
2023/01/16 13:27:07;;;;;;;6.72;0.63;;;20.00;61.60;;;;;;4512144;31;20183;-68
2023/01/16 13:29:41;;;;;;;3.20;0.68;;;20.00;61.70;;;;;;4528353;31;20132;-65
2023/01/16 13:32:31;;;;;;;2.83;0.60;;;20.00;61.60;;;;;;4519988;31;20123;-66
2023/01/16 13:35:20;;;;;;;1.45;0.60;;;20.00;61.70;;;;;;4527925;31;20080;-67
2023/01/16 13:37:49;;;;;;;2.08;0.50;;;20.00;61.70;;;;;;4527881;31;20120;-67
2023/01/16 13:40:27;;;;;;;2.20;0.60;;;20.00;61.70;;;;;;4530032;31;21038;-66
2023/01/16 13:45:47;;;;;;;2.40;0.50;;;20.00;61.70;;;;;;4529628;31;20135;-67
2023/01/16 13:45:52;;;;;;;1.17;0.50;;;19.90;61.70;;;;;;4528987;31;20329;-67
2023/01/16 13:48:21;;;;;;;2.65;0.52;;;19.90;61.70;;;;;;4530489;31;20120;-67
2023/01/16 13:51:07;;;;;;;0.93;0.40;;;20.00;61.80;;;;;;4528660;31;20139;-66
2023/01/16 13:53:36;;;;;;;4.25;0.70;;;20.00;61.80;;;;;;4530206;31;20124;-66
2023/01/16 13:56:15;;;;;;;2.75;0.60;;;20.00;61.90;;;;;;4529831;31;20147;-66
2023/01/16 13:58:45;;;;;;;3.97;0.47;;;20.00;61.90;;;;;;4529598;31;20588;-67
2023/01/16 14:01:33;;;;;;;1.85;0.50;;;20.00;61.90;;;;;;4513210;31;20128;-66
2023/01/16 14:04:19;;;;;;;4.18;0.80;;;20.00;61.90;;;;;;4527953;31;20145;-66
2023/01/16 14:06:49;;;;;;;1.73;0.68;;;20.00;61.90;;;;;;4526722;31;20254;-66
2023/01/16 14:09:20;;;;;;;2.50;0.95;;;19.90;61.80;;;;;;4529242;31;20100;-66
2023/01/16 14:12:23;;;;;;;1.33;0.70;;;19.90;61.80;;;;;;4514458;31;20128;-66